TimeMST,TemperatureF,Dew PointF,Humidity,Sea Level PressureIn,VisibilityMPH,Wind Direction,Wind SpeedMPH,Gust SpeedMPH,PrecipitationIn,Events,Conditions,WindDirDegrees,DateUTC
12:15 AM,37.4,15.8,41,29.87,10.0,SSW,8.1,-,N/A,,Clear,200,2011-11-19 07:15:00
12:35 AM,37.4,15.8,41,29.88,10.0,SSW,4.6,-,N/A,,Clear,210,2011-11-19 07:35:00
12:55 AM,35.6,14.0,41,29.87,10.0,SSW,6.9,-,N/A,,Clear,200,2011-11-19 07:55:00
1:15 AM,32.0,12.2,44,29.88,10.0,South,5.8,-,N/A,,Clear,170,2011-11-19 08:15:00
1:35 AM,28.4,12.2,51,29.88,10.0,ESE,6.9,-,N/A,,Clear,120,2011-11-19 08:35:00
1:55 AM,30.2,15.8,55,29.88,10.0,SSE,9.2,-,N/A,,Clear,150,2011-11-19 08:55:00
2:15 AM,33.8,14.0,44,29.89,10.0,South,4.6,-,N/A,,Clear,170,2011-11-19 09:15:00
2:35 AM,33.8,15.8,48,29.89,10.0,South,5.8,-,N/A,,Clear,170,2011-11-19 09:35:00
2:55 AM,33.8,15.8,48,29.89,10.0,SSE,8.1,-,N/A,,Clear,160,2011-11-19 09:55:00
3:15 AM,33.8,15.8,48,29.90,10.0,South,5.8,-,N/A,,Clear,170,2011-11-19 10:15:00
3:35 AM,30.2,15.8,55,29.89,10.0,South,10.4,-,N/A,,Clear,180,2011-11-19 10:35:00
3:55 AM,30.2,15.8,55,29.89,10.0,South,8.1,-,N/A,,Clear,170,2011-11-19 10:55:00
4:15 AM,32.0,15.8,51,29.89,10.0,South,9.2,-,N/A,,Clear,170,2011-11-19 11:15:00
4:35 AM,33.8,15.8,48,29.89,10.0,SSE,10.4,-,N/A,,Clear,160,2011-11-19 11:35:00
5:15 AM,33.8,15.8,48,29.90,10.0,Calm,Calm,-,N/A,,Clear,0,2011-11-19 12:15:00
5:35 AM,30.2,14.0,51,29.90,10.0,SW,10.4,-,N/A,,Clear,230,2011-11-19 12:35:00
5:55 AM,33.8,15.8,48,29.90,10.0,South,6.9,-,N/A,,Clear,190,2011-11-19 12:55:00
6:15 AM,33.8,15.8,48,29.91,10.0,SSW,8.1,-,N/A,,Clear,210,2011-11-19 13:15:00
6:35 AM,33.8,15.8,48,29.91,10.0,South,6.9,-,N/A,,Clear,190,2011-11-19 13:35:00
6:55 AM,28.4,14.0,55,29.92,10.0,Calm,Calm,-,N/A,,Clear,0,2011-11-19 13:55:00
7:15 AM,33.8,15.8,48,29.93,10.0,South,5.8,-,N/A,,Clear,170,2011-11-19 14:15:00
7:35 AM,35.6,17.6,48,29.95,10.0,Calm,Calm,-,N/A,,Clear,0,2011-11-19 14:35:00
7:55 AM,39.2,19.4,45,29.96,10.0,Calm,Calm,-,N/A,,Clear,0,2011-11-19 14:55:00
8:15 AM,42.8,17.6,36,29.97,10.0,Calm,Calm,-,N/A,,Clear,0,2011-11-19 15:15:00
8:35 AM,42.8,17.6,36,29.98,10.0,South,4.6,-,N/A,,Clear,180,2011-11-19 15:35:00
8:55 AM,44.6,17.6,34,29.99,10.0,SSW,6.9,-,N/A,,Clear,200,2011-11-19 15:55:00
9:15 AM,46.4,17.6,32,29.99,10.0,WSW,4.6,-,N/A,,Clear,240,2011-11-19 16:15:00
9:55 AM,48.2,19.4,32,29.99,10.0,WSW,8.1,-,N/A,,Clear,240,2011-11-19 16:55:00
10:15 AM,48.2,17.6,30,29.99,10.0,WSW,9.2,17.3,N/A,,Clear,240,2011-11-19 17:15:00
10:35 AM,50.0,17.6,28,29.98,10.0,WSW,18.4,23.0,N/A,,Clear,250,2011-11-19 17:35:00
10:55 AM,50.0,17.6,28,29.97,10.0,SSW,10.4,20.7,N/A,,Clear,210,2011-11-19 17:55:00
11:15 AM,51.8,17.6,26,29.97,10.0,SW,15.0,20.7,N/A,,Clear,230,2011-11-19 18:15:00
11:35 AM,51.8,17.6,26,29.96,10.0,West,12.7,26.5,N/A,,Clear,260,2011-11-19 18:35:00
11:55 AM,51.8,17.6,26,29.96,10.0,WSW,13.8,20.7,N/A,,Clear,240,2011-11-19 18:55:00
12:35 PM,51.8,15.8,24,29.95,10.0,WSW,13.8,25.3,N/A,,Clear,250,2011-11-19 19:35:00
12:55 PM,53.6,15.8,22,29.94,10.0,WSW,12.7,21.9,N/A,,Clear,250,2011-11-19 19:55:00
1:15 PM,51.8,15.8,24,29.94,10.0,West,12.7,23.0,N/A,,Clear,260,2011-11-19 20:15:00
1:35 PM,53.6,15.8,22,29.94,10.0,WSW,11.5,19.6,N/A,,Clear,250,2011-11-19 20:35:00
1:55 PM,51.8,14.0,22,29.94,10.0,SW,12.7,-,N/A,,Clear,230,2011-11-19 20:55:00
2:15 PM,51.8,14.0,22,29.95,10.0,SW,13.8,18.4,N/A,,Clear,230,2011-11-19 21:15:00
2:35 PM,51.8,15.8,24,29.95,10.0,SW,18.4,-,N/A,,Clear,230,2011-11-19 21:35:00
2:55 PM,51.8,14.0,22,29.95,10.0,West,15.0,-,N/A,,Clear,260,2011-11-19 21:55:00
3:15 PM,50.0,12.2,22,29.96,10.0,WSW,13.8,-,N/A,,Clear,250,2011-11-19 22:15:00
3:35 PM,51.8,14.0,22,29.96,10.0,West,10.4,-,N/A,,Clear,260,2011-11-19 22:35:00
3:55 PM,50.0,14.0,24,29.96,10.0,West,9.2,-,N/A,,Clear,260,2011-11-19 22:55:00
4:15 PM,50.0,12.2,22,29.97,10.0,West,6.9,-,N/A,,Clear,270,2011-11-19 23:15:00
4:35 PM,46.4,12.2,25,29.98,10.0,WSW,5.8,-,N/A,,Clear,250,2011-11-19 23:35:00
5:15 PM,42.8,10.4,27,29.98,10.0,NNW,3.5,-,N/A,,Clear,340,2011-11-20 00:15:00
5:35 PM,41.0,12.2,31,29.99,10.0,NNW,4.6,-,N/A,,Clear,340,2011-11-20 00:35:00
5:55 PM,41.0,12.2,31,30.00,10.0,North,4.6,-,N/A,,Clear,350,2011-11-20 00:55:00
6:15 PM,39.2,10.4,31,30.00,10.0,North,3.5,-,N/A,,Clear,350,2011-11-20 01:15:00
6:35 PM,28.4,6.8,40,30.01,10.0,ESE,10.4,-,N/A,,Clear,120,2011-11-20 01:35:00
7:15 PM,33.8,15.8,48,30.02,10.0,Calm,Calm,-,N/A,,Clear,0,2011-11-20 02:15:00
7:35 PM,33.8,14.0,44,30.02,10.0,Calm,Calm,-,N/A,,Clear,0,2011-11-20 02:35:00
7:55 PM,32.0,15.8,51,30.03,10.0,NE,3.5,-,N/A,,Clear,50,2011-11-20 02:55:00
8:15 PM,30.2,15.8,55,30.04,10.0,Calm,Calm,-,N/A,,Clear,0,2011-11-20 03:15:00
8:35 PM,30.2,14.0,51,30.04,10.0,Calm,Calm,-,N/A,,Clear,0,2011-11-20 03:35:00
8:55 PM,28.4,12.2,51,30.04,10.0,Calm,Calm,-,N/A,,Clear,0,2011-11-20 03:55:00
9:15 PM,28.4,14.0,55,30.05,10.0,Calm,Calm,-,N/A,,Clear,0,2011-11-20 04:15:00
9:35 PM,30.2,15.8,55,30.04,10.0,East,3.5,-,N/A,,Clear,80,2011-11-20 04:35:00
9:55 PM,30.2,15.8,55,30.05,10.0,East,5.8,-,N/A,,Clear,80,2011-11-20 04:55:00
10:15 PM,28.4,14.0,55,30.05,10.0,ENE,5.8,-,N/A,,Clear,60,2011-11-20 05:15:00
10:35 PM,28.4,17.6,64,30.05,10.0,ENE,3.5,-,N/A,,Clear,60,2011-11-20 05:35:00
10:55 PM,26.6,15.8,64,30.05,10.0,ENE,4.6,-,N/A,,Clear,60,2011-11-20 05:55:00
11:15 PM,30.2,17.6,60,30.05,10.0,ENE,3.5,-,N/A,,Clear,70,2011-11-20 06:15:00
11:35 PM,28.4,17.6,64,30.05,10.0,Calm,Calm,-,N/A,,Clear,0,2011-11-20 06:35:00
11:55 PM,28.4,15.8,59,30.05,10.0,Calm,Calm,-,N/A,,Clear,0,2011-11-20 06:55:00